• Join FlightAware (Why Join?)
  • Login
  • US Flag 
10:32AM EDT


 

Airport Tracker/Info


-or-


 

Live Flight TrackerFlight Track Log ✈ TAM3273 ✈ 15-Sep-2013 ✈ SBUL / UDI - SBSP / CGH

Flight Track Log - Related Links

Times and Time Zones

All times are in EDT time to prevent confusion due to time zone crossing. See the TAM3273 flight status page for this flight to view local times or setup timezone preferences in your user account.

Time Position Orientation Groundspeed Altitude Reporting Facility
EDT Latitude Longitude Course Direction KTS MPH feet Rate Location/Type
07:50AM -20.0517 -47.8483 163° South  Level Estimated
07:51AM -20.1204 -47.8259 163° South  Level Estimated
07:52AM -20.1891 -47.8035 163° South  Level Estimated
07:53AM -20.2579 -47.7811 163° South  Level Estimated
07:54AM -20.3266 -47.7587 163° South  Level Estimated
07:55AM -20.3953 -47.7362 163° South  Level Estimated
07:56AM -20.4640 -47.7138 163° South  Level Estimated
07:57AM -20.5327 -47.6913 163° South  Level Estimated
07:58AM -20.6015 -47.6688 163° South  Level Estimated
07:59AM -20.6702 -47.6462 163° South  Level Estimated
08:00AM -20.7389 -47.6237 163° South  Level Estimated
08:01AM -20.8076 -47.6011 163° South  Level Estimated
08:02AM -20.8763 -47.5785 163° South  Level Estimated
08:03AM -20.9450 -47.5559 163° South  Level Estimated
08:04AM -21.0137 -47.5333 163° South  Level Estimated
08:05AM -21.0824 -47.5106 163° South  Level Estimated
08:06AM -21.1511 -47.4880 163° South  Level Estimated
08:07AM -21.2197 -47.4653 163° South  Level Estimated
08:08AM -21.2884 -47.4426 163° South  Level Estimated
08:09AM -21.3571 -47.4198 163° South  Level Estimated
08:10AM -21.4258 -47.3971 163° South  Level Estimated
08:11AM -21.4944 -47.3743 163° South  Level Estimated
08:12AM -21.5631 -47.3515 163° South  Level Estimated
08:13AM -21.6318 -47.3287 163° South  Level Estimated
08:14AM -21.7004 -47.3059 163° South  Level Estimated
08:15AM -21.7691 -47.2830 163° South  Level Estimated
08:16AM -21.8378 -47.2601 163° South  Level Estimated
08:17AM -21.9064 -47.2372 163° South  Level Estimated
08:18AM -21.9751 -47.2143 163° South  Level Estimated
08:19AM -22.0437 -47.1913 163° South  Level Estimated
08:20AM -22.1124 -47.1684 163° South  Level Estimated
08:21AM -22.1810 -47.1454 163° South  Level Estimated
08:22AM -22.2496 -47.1223 163° South  Level Estimated
08:23AM -22.3183 -47.0993 163° South  Level Estimated
08:24AM -22.3869 -47.0762 163° South  Level Estimated
08:25AM -22.4555 -47.0531 163° South  Level Estimated
08:26AM -22.5241 -47.0300 163° South  Level Estimated
08:27AM -22.5928 -47.0069 163° South  Level Estimated
08:28AM -22.6614 -46.9837 163° South  Level Estimated
08:29AM -22.7300 -46.9606 163° South  Level Estimated
08:30AM -22.7986 -46.9374 163° South  Level Estimated
08:31AM -22.8672 -46.9141 163° South  Level Estimated
08:32AM -22.9358 -46.8909 163° South  Level Estimated
08:33AM -23.0044 -46.8676 163° South  Level Estimated
08:34AM -23.0730 -46.8443 163° South  Level Estimated
08:35AM -23.1416 -46.8210 163° South  Level Estimated
08:36AM -23.2102 -46.7977 163° South  Level Estimated
08:37AM -23.2788 -46.7743 163° South  Level Estimated
08:38AM -23.3474 -46.7509 163° South  Level Estimated
08:39AM -23.4159 -46.7275 163° South  Level Estimated
08:40AM -23.4845 -46.7040 163° South  Level Estimated
08:41AM -23.5531 -46.6806 163° South  Level Estimated
08:42AM -23.6217 -46.6571 163° South  Level Estimated
08:43AM -23.6267 -46.6554 163° South  Level Estimated
08:44AM -23.6267 -46.6554 114° Southeast  Level Estimated
08:45AM -23.6267 -46.6554 114° Southeast  Level Estimated
08:46AM -23.6267 -46.6554 114° Southeast  Level Estimated
08:47AM -23.6267 -46.6554 114° Southeast  Level Estimated
08:48AM -23.6267 -46.6554 114° Southeast  Level Estimated
08:49AM -23.6267 -46.6554 114° Southeast  Level Estimated
08:50AM -23.6267 -46.6554 114° Southeast  Level Estimated
08:51AM -23.6267 -46.6554 114° Southeast  Level Estimated
08:52AM -23.6267 -46.6554 114° Southeast  Level Estimated
08:53AM -23.6267 -46.6554 114° Southeast  Level Estimated
08:54AM -23.6267 -46.6554 114° Southeast  Level Estimated
08:55AM -23.6267 -46.6554 114° Southeast  Level Estimated
08:56AM -23.6267 -46.6554 114° Southeast  Level Estimated
08:57AM -23.6267 -46.6554 114° Southeast  Level Estimated
08:58AM -23.6267 -46.6554 114° Southeast  Level Estimated